Terminal Aerodrome Forecast
Issued by NWS Cleveland, OH

Home | Current Version | Previous Version | Graphics & Text | Print | Product List | Glossary On
Versions: 1 2 3 4 5 6 7 8 9 10 11 12 13 14 15 16 17 18 19 20 21 22 23 24
000
FTUS41 KCLE 251700
TAFMFD
TAF
KMFD 251726Z 2518/2618 21022G30KT P6SM VCSH SCT120 OVC250
     FM252000 20020G30KT P6SM VCSH SCT040 BKN080
      TEMPO 2520/2524 5SM -TSRA BR BKN040CB
     FM260100 20012KT P6SM SCT040 BKN120
     FM260800 20008KT 5SM -SHRA BR OVC030
     FM261400 20012KT P6SM VCSH BKN025=

USA.gov is the U.S. government's official web portal to all federal, state and local government web resources and services.